sensor_id;sensor_type;location;lat;lon;timestamp;P1;durP1;ratioP1;P2;durP2;ratioP2
47860;SDS011;33620;52.340;5.984;2024-03-06T00:01:47;55.08;;;31.02;;
47860;SDS011;33620;52.340;5.984;2024-03-06T00:04:12;55.00;;;31.60;;
47860;SDS011;33620;52.340;5.984;2024-03-06T00:06:37;52.00;;;31.08;;
47860;SDS011;33620;52.340;5.984;2024-03-06T00:09:03;55.90;;;33.42;;
47860;SDS011;33620;52.340;5.984;2024-03-06T00:11:28;48.85;;;31.13;;
47860;SDS011;33620;52.340;5.984;2024-03-06T00:13:54;52.47;;;31.80;;
47860;SDS011;33620;52.340;5.984;2024-03-06T00:16:20;59.90;;;34.90;;
47860;SDS011;33620;52.340;5.984;2024-03-06T00:18:45;54.08;;;31.38;;
47860;SDS011;33620;52.340;5.984;2024-03-06T00:21:10;54.95;;;32.53;;
47860;SDS011;33620;52.340;5.984;2024-03-06T00:23:36;54.38;;;30.55;;
47860;SDS011;33620;52.340;5.984;2024-03-06T00:26:02;55.38;;;32.47;;
47860;SDS011;33620;52.340;5.984;2024-03-06T00:28:28;56.38;;;35.28;;
47860;SDS011;33620;52.340;5.984;2024-03-06T00:30:54;49.08;;;30.60;;
47860;SDS011;33620;52.340;5.984;2024-03-06T00:33:20;48.90;;;31.13;;
47860;SDS011;33620;52.340;5.984;2024-03-06T00:35:46;56.30;;;32.90;;
47860;SDS011;33620;52.340;5.984;2024-03-06T00:38:11;55.35;;;33.60;;
47860;SDS011;33620;52.340;5.984;2024-03-06T00:40:38;56.17;;;35.38;;
47860;SDS011;33620;52.340;5.984;2024-03-06T00:43:03;55.42;;;34.97;;
47860;SDS011;33620;52.340;5.984;2024-03-06T00:45:29;57.83;;;35.67;;
47860;SDS011;33620;52.340;5.984;2024-03-06T00:47:54;55.33;;;35.33;;
47860;SDS011;33620;52.340;5.984;2024-03-06T00:50:20;61.25;;;36.53;;
47860;SDS011;33620;52.340;5.984;2024-03-06T00:52:47;52.22;;;32.65;;
47860;SDS011;33620;52.340;5.984;2024-03-06T00:55:13;59.75;;;36.00;;
47860;SDS011;33620;52.340;5.984;2024-03-06T00:57:39;58.67;;;36.50;;
47860;SDS011;33620;52.340;5.984;2024-03-06T01:00:05;53.20;;;34.40;;
47860;SDS011;33620;52.340;5.984;2024-03-06T01:02:36;60.38;;;35.25;;
47860;SDS011;33620;52.340;5.984;2024-03-06T01:05:05;56.10;;;35.63;;
47860;SDS011;33620;52.340;5.984;2024-03-06T01:07:31;56.97;;;36.08;;
47860;SDS011;33620;52.340;5.984;2024-03-06T01:09:57;53.75;;;33.40;;
47860;SDS011;33620;52.340;5.984;2024-03-06T01:12:25;60.38;;;36.65;;
47860;SDS011;33620;52.340;5.984;2024-03-06T01:14:50;62.28;;;37.90;;
47860;SDS011;33620;52.340;5.984;2024-03-06T01:17:16;63.08;;;37.22;;
47860;SDS011;33620;52.340;5.984;2024-03-06T01:19:41;59.45;;;37.13;;
47860;SDS011;33620;52.340;5.984;2024-03-06T01:22:10;56.40;;;35.90;;
47860;SDS011;33620;52.340;5.984;2024-03-06T01:24:35;61.05;;;36.25;;
47860;SDS011;33620;52.340;5.984;2024-03-06T01:27:01;58.72;;;36.17;;
47860;SDS011;33620;52.340;5.984;2024-03-06T01:29:28;58.00;;;36.00;;
47860;SDS011;33620;52.340;5.984;2024-03-06T01:31:54;68.68;;;39.45;;
47860;SDS011;33620;52.340;5.984;2024-03-06T01:34:19;52.78;;;34.05;;
47860;SDS011;33620;52.340;5.984;2024-03-06T01:36:44;54.63;;;34.78;;
47860;SDS011;33620;52.340;5.984;2024-03-06T01:39:10;55.55;;;34.88;;
47860;SDS011;33620;52.340;5.984;2024-03-06T01:41:36;54.13;;;33.92;;
47860;SDS011;33620;52.340;5.984;2024-03-06T01:44:01;57.50;;;35.92;;
47860;SDS011;33620;52.340;5.984;2024-03-06T01:46:28;60.13;;;35.30;;
47860;SDS011;33620;52.340;5.984;2024-03-06T01:48:54;57.75;;;34.90;;
47860;SDS011;33620;52.340;5.984;2024-03-06T01:51:19;54.47;;;34.88;;
47860;SDS011;33620;52.340;5.984;2024-03-06T01:53:45;66.28;;;39.72;;
47860;SDS011;33620;52.340;5.984;2024-03-06T01:56:10;66.00;;;38.42;;
47860;SDS011;33620;52.340;5.984;2024-03-06T01:58:39;65.05;;;38.58;;
47860;SDS011;33620;52.340;5.984;2024-03-06T02:01:05;63.67;;;38.63;;
47860;SDS011;33620;52.340;5.984;2024-03-06T02:03:31;64.05;;;38.63;;
47860;SDS011;33620;52.340;5.984;2024-03-06T02:05:58;57.03;;;35.00;;
47860;SDS011;33620;52.340;5.984;2024-03-06T02:08:27;58.65;;;37.50;;
47860;SDS011;33620;52.340;5.984;2024-03-06T02:10:52;57.67;;;36.03;;
47860;SDS011;33620;52.340;5.984;2024-03-06T02:13:18;53.45;;;34.60;;
47860;SDS011;33620;52.340;5.984;2024-03-06T02:15:47;58.65;;;36.90;;
47860;SDS011;33620;52.340;5.984;2024-03-06T02:18:13;58.17;;;37.00;;
47860;SDS011;33620;52.340;5.984;2024-03-06T02:20:38;57.10;;;34.63;;
47860;SDS011;33620;52.340;5.984;2024-03-06T02:23:05;59.88;;;34.63;;
47860;SDS011;33620;52.340;5.984;2024-03-06T02:25:30;60.40;;;37.30;;
47860;SDS011;33620;52.340;5.984;2024-03-06T02:27:55;60.70;;;37.03;;
47860;SDS011;33620;52.340;5.984;2024-03-06T02:30:21;56.15;;;34.88;;
47860;SDS011;33620;52.340;5.984;2024-03-06T02:32:46;60.03;;;36.03;;
47860;SDS011;33620;52.340;5.984;2024-03-06T02:35:12;59.17;;;36.88;;
47860;SDS011;33620;52.340;5.984;2024-03-06T02:37:38;61.33;;;37.75;;
47860;SDS011;33620;52.340;5.984;2024-03-06T02:40:05;59.15;;;34.35;;
47860;SDS011;33620;52.340;5.984;2024-03-06T02:42:32;60.97;;;37.17;;
47860;SDS011;33620;52.340;5.984;2024-03-06T02:44:57;53.88;;;33.78;;
47860;SDS011;33620;52.340;5.984;2024-03-06T02:47:23;58.75;;;36.13;;
47860;SDS011;33620;52.340;5.984;2024-03-06T02:49:48;60.08;;;36.85;;
47860;SDS011;33620;52.340;5.984;2024-03-06T02:52:14;55.10;;;35.17;;
47860;SDS011;33620;52.340;5.984;2024-03-06T02:54:40;62.33;;;38.40;;
47860;SDS011;33620;52.340;5.984;2024-03-06T02:57:07;60.40;;;37.80;;
47860;SDS011;33620;52.340;5.984;2024-03-06T02:59:32;55.45;;;36.42;;
47860;SDS011;33620;52.340;5.984;2024-03-06T03:01:58;61.58;;;38.85;;
47860;SDS011;33620;52.340;5.984;2024-03-06T03:04:23;56.08;;;36.25;;
47860;SDS011;33620;52.340;5.984;2024-03-06T03:06:48;57.53;;;35.78;;
47860;SDS011;33620;52.340;5.984;2024-03-06T03:09:14;57.40;;;36.92;;
47860;SDS011;33620;52.340;5.984;2024-03-06T03:11:39;58.42;;;36.83;;
47860;SDS011;33620;52.340;5.984;2024-03-06T03:14:06;51.92;;;33.90;;
47860;SDS011;33620;52.340;5.984;2024-03-06T03:16:32;53.95;;;34.88;;
47860;SDS011;33620;52.340;5.984;2024-03-06T03:18:57;56.50;;;35.83;;
47860;SDS011;33620;52.340;5.984;2024-03-06T03:21:22;61.58;;;37.00;;
47860;SDS011;33620;52.340;5.984;2024-03-06T03:23:48;57.42;;;36.25;;
47860;SDS011;33620;52.340;5.984;2024-03-06T03:26:14;54.33;;;35.05;;
47860;SDS011;33620;52.340;5.984;2024-03-06T03:28:40;54.47;;;35.17;;
47860;SDS011;33620;52.340;5.984;2024-03-06T03:31:09;56.38;;;35.40;;
47860;SDS011;33620;52.340;5.984;2024-03-06T03:33:35;58.17;;;33.88;;
47860;SDS011;33620;52.340;5.984;2024-03-06T03:36:04;52.80;;;32.90;;
47860;SDS011;33620;52.340;5.984;2024-03-06T03:38:31;53.40;;;32.28;;
47860;SDS011;33620;52.340;5.984;2024-03-06T03:40:57;56.58;;;36.30;;
47860;SDS011;33620;52.340;5.984;2024-03-06T03:43:22;52.97;;;33.30;;
47860;SDS011;33620;52.340;5.984;2024-03-06T03:45:48;53.47;;;34.28;;
47860;SDS011;33620;52.340;5.984;2024-03-06T03:48:14;53.97;;;35.15;;
47860;SDS011;33620;52.340;5.984;2024-03-06T03:50:39;54.08;;;33.90;;
47860;SDS011;33620;52.340;5.984;2024-03-06T03:53:05;55.58;;;35.20;;
47860;SDS011;33620;52.340;5.984;2024-03-06T03:55:30;55.65;;;33.72;;
47860;SDS011;33620;52.340;5.984;2024-03-06T03:57:55;57.20;;;36.03;;
47860;SDS011;33620;52.340;5.984;2024-03-06T04:00:21;60.08;;;36.33;;
47860;SDS011;33620;52.340;5.984;2024-03-06T04:02:47;60.05;;;36.30;;
47860;SDS011;33620;52.340;5.984;2024-03-06T04:05:13;54.03;;;34.47;;
47860;SDS011;33620;52.340;5.984;2024-03-06T04:07:39;53.88;;;33.95;;
47860;SDS011;33620;52.340;5.984;2024-03-06T04:10:05;52.67;;;33.13;;
47860;SDS011;33620;52.340;5.984;2024-03-06T04:12:31;51.38;;;32.45;;
47860;SDS011;33620;52.340;5.984;2024-03-06T04:14:56;56.08;;;32.88;;
47860;SDS011;33620;52.340;5.984;2024-03-06T04:17:22;58.13;;;36.13;;
47860;SDS011;33620;52.340;5.984;2024-03-06T04:19:47;52.45;;;32.72;;
47860;SDS011;33620;52.340;5.984;2024-03-06T04:22:13;62.38;;;38.38;;
47860;SDS011;33620;52.340;5.984;2024-03-06T04:24:42;55.38;;;34.90;;
47860;SDS011;33620;52.340;5.984;2024-03-06T04:27:08;57.78;;;34.95;;
47860;SDS011;33620;52.340;5.984;2024-03-06T04:29:33;50.97;;;32.40;;
47860;SDS011;33620;52.340;5.984;2024-03-06T04:31:59;48.92;;;32.47;;
47860;SDS011;33620;52.340;5.984;2024-03-06T04:34:24;49.20;;;30.85;;
47860;SDS011;33620;52.340;5.984;2024-03-06T04:36:49;48.35;;;32.28;;
47860;SDS011;33620;52.340;5.984;2024-03-06T04:39:15;52.22;;;31.98;;
47860;SDS011;33620;52.340;5.984;2024-03-06T04:41:40;49.63;;;31.33;;
47860;SDS011;33620;52.340;5.984;2024-03-06T04:44:05;47.17;;;29.90;;
47860;SDS011;33620;52.340;5.984;2024-03-06T04:46:31;47.58;;;31.10;;
47860;SDS011;33620;52.340;5.984;2024-03-06T04:48:56;53.70;;;32.95;;
47860;SDS011;33620;52.340;5.984;2024-03-06T04:51:22;48.55;;;31.08;;
47860;SDS011;33620;52.340;5.984;2024-03-06T04:53:47;51.25;;;32.10;;
47860;SDS011;33620;52.340;5.984;2024-03-06T04:56:13;50.80;;;32.03;;
47860;SDS011;33620;52.340;5.984;2024-03-06T04:58:38;51.25;;;31.77;;
47860;SDS011;33620;52.340;5.984;2024-03-06T05:01:05;49.25;;;30.75;;
47860;SDS011;33620;52.340;5.984;2024-03-06T05:03:30;49.75;;;31.50;;
47860;SDS011;33620;52.340;5.984;2024-03-06T05:05:55;46.60;;;29.02;;
47860;SDS011;33620;52.340;5.984;2024-03-06T05:08:21;47.90;;;30.17;;
47860;SDS011;33620;52.340;5.984;2024-03-06T05:10:46;50.33;;;29.98;;
47860;SDS011;33620;52.340;5.984;2024-03-06T05:13:11;51.70;;;31.63;;
47860;SDS011;33620;52.340;5.984;2024-03-06T05:15:37;50.00;;;29.67;;
47860;SDS011;33620;52.340;5.984;2024-03-06T05:18:04;43.67;;;26.85;;
47860;SDS011;33620;52.340;5.984;2024-03-06T05:20:30;47.00;;;29.13;;
47860;SDS011;33620;52.340;5.984;2024-03-06T05:22:58;47.72;;;30.35;;
47860;SDS011;33620;52.340;5.984;2024-03-06T05:25:24;46.92;;;28.92;;
47860;SDS011;33620;52.340;5.984;2024-03-06T05:27:49;49.17;;;30.55;;
47860;SDS011;33620;52.340;5.984;2024-03-06T05:30:15;58.30;;;32.45;;
47860;SDS011;33620;52.340;5.984;2024-03-06T05:32:40;52.65;;;31.20;;
47860;SDS011;33620;52.340;5.984;2024-03-06T05:35:06;54.38;;;32.88;;
47860;SDS011;33620;52.340;5.984;2024-03-06T05:37:35;54.17;;;34.38;;
47860;SDS011;33620;52.340;5.984;2024-03-06T05:40:00;53.65;;;33.78;;
47860;SDS011;33620;52.340;5.984;2024-03-06T05:42:29;74.07;;;44.03;;
47860;SDS011;33620;52.340;5.984;2024-03-06T05:44:55;87.63;;;48.50;;
47860;SDS011;33620;52.340;5.984;2024-03-06T05:47:25;113.13;;;53.70;;
47860;SDS011;33620;52.340;5.984;2024-03-06T05:49:51;96.32;;;50.75;;
47860;SDS011;33620;52.340;5.984;2024-03-06T05:52:16;116.93;;;49.63;;
47860;SDS011;33620;52.340;5.984;2024-03-06T05:54:41;224.05;;;60.85;;
47860;SDS011;33620;52.340;5.984;2024-03-06T05:57:07;195.25;;;54.65;;
47860;SDS011;33620;52.340;5.984;2024-03-06T05:59:32;166.15;;;52.55;;
47860;SDS011;33620;52.340;5.984;2024-03-06T06:01:58;292.02;;;57.45;;
47860;SDS011;33620;52.340;5.984;2024-03-06T06:04:23;266.05;;;50.40;;
47860;SDS011;33620;52.340;5.984;2024-03-06T06:06:48;201.73;;;41.47;;
47860;SDS011;33620;52.340;5.984;2024-03-06T06:09:14;426.02;;;55.25;;
47860;SDS011;33620;52.340;5.984;2024-03-06T06:11:41;388.42;;;56.70;;
47860;SDS011;33620;52.340;5.984;2024-03-06T06:14:07;269.42;;;45.45;;
47860;SDS011;33620;52.340;5.984;2024-03-06T06:16:37;201.80;;;38.42;;
47860;SDS011;33620;52.340;5.984;2024-03-06T06:19:03;251.70;;;42.40;;
47860;SDS011;33620;52.340;5.984;2024-03-06T06:21:29;298.75;;;45.65;;
47860;SDS011;33620;52.340;5.984;2024-03-06T06:23:55;221.95;;;41.30;;
47860;SDS011;33620;52.340;5.984;2024-03-06T06:26:21;361.52;;;51.05;;
47860;SDS011;33620;52.340;5.984;2024-03-06T06:28:46;289.52;;;46.92;;
47860;SDS011;33620;52.340;5.984;2024-03-06T06:31:12;304.02;;;47.63;;
47860;SDS011;33620;52.340;5.984;2024-03-06T06:33:37;244.05;;;41.40;;
47860;SDS011;33620;52.340;5.984;2024-03-06T06:36:02;400.40;;;58.08;;
47860;SDS011;33620;52.340;5.984;2024-03-06T06:38:28;186.57;;;40.10;;
47860;SDS011;33620;52.340;5.984;2024-03-06T06:40:54;307.50;;;50.22;;
47860;SDS011;33620;52.340;5.984;2024-03-06T06:43:20;228.23;;;44.83;;
47860;SDS011;33620;52.340;5.984;2024-03-06T06:45:46;347.58;;;54.92;;
47860;SDS011;33620;52.340;5.984;2024-03-06T06:48:11;206.35;;;42.80;;
47860;SDS011;33620;52.340;5.984;2024-03-06T06:50:37;147.02;;;35.08;;
47860;SDS011;33620;52.340;5.984;2024-03-06T06:53:02;203.82;;;42.90;;
47860;SDS011;33620;52.340;5.984;2024-03-06T06:55:28;180.38;;;37.65;;
47860;SDS011;33620;52.340;5.984;2024-03-06T06:57:53;217.20;;;43.90;;
47860;SDS011;33620;52.340;5.984;2024-03-06T07:00:19;180.48;;;37.53;;
47860;SDS011;33620;52.340;5.984;2024-03-06T07:02:46;350.33;;;52.05;;
47860;SDS011;33620;52.340;5.984;2024-03-06T07:05:12;271.90;;;46.03;;
47860;SDS011;33620;52.340;5.984;2024-03-06T07:07:37;265.17;;;48.15;;
47860;SDS011;33620;52.340;5.984;2024-03-06T07:10:06;236.32;;;44.42;;
47860;SDS011;33620;52.340;5.984;2024-03-06T07:12:33;311.25;;;53.20;;
47860;SDS011;33620;52.340;5.984;2024-03-06T07:14:58;220.82;;;43.00;;
47860;SDS011;33620;52.340;5.984;2024-03-06T07:17:24;153.98;;;35.78;;
47860;SDS011;33620;52.340;5.984;2024-03-06T07:19:49;439.02;;;68.47;;
47860;SDS011;33620;52.340;5.984;2024-03-06T07:22:16;175.60;;;40.00;;
47860;SDS011;33620;52.340;5.984;2024-03-06T07:24:41;327.08;;;59.33;;
47860;SDS011;33620;52.340;5.984;2024-03-06T07:27:07;175.93;;;45.25;;
47860;SDS011;33620;52.340;5.984;2024-03-06T07:29:36;301.40;;;52.33;;
47860;SDS011;33620;52.340;5.984;2024-03-06T07:32:02;248.00;;;49.15;;
47860;SDS011;33620;52.340;5.984;2024-03-06T07:34:28;290.05;;;54.10;;
47860;SDS011;33620;52.340;5.984;2024-03-06T07:36:53;453.30;;;78.60;;
47860;SDS011;33620;52.340;5.984;2024-03-06T07:39:19;271.35;;;50.63;;
47860;SDS011;33620;52.340;5.984;2024-03-06T07:41:45;285.23;;;49.63;;
47860;SDS011;33620;52.340;5.984;2024-03-06T07:44:10;346.88;;;56.30;;
47860;SDS011;33620;52.340;5.984;2024-03-06T07:46:36;124.07;;;37.78;;
47860;SDS011;33620;52.340;5.984;2024-03-06T07:49:02;211.13;;;46.63;;
47860;SDS011;33620;52.340;5.984;2024-03-06T07:51:28;148.90;;;37.47;;
47860;SDS011;33620;52.340;5.984;2024-03-06T07:53:57;169.38;;;40.55;;
47860;SDS011;33620;52.340;5.984;2024-03-06T07:56:23;116.07;;;31.42;;
47860;SDS011;33620;52.340;5.984;2024-03-06T07:58:49;137.63;;;37.67;;
47860;SDS011;33620;52.340;5.984;2024-03-06T08:01:15;120.20;;;36.05;;
47860;SDS011;33620;52.340;5.984;2024-03-06T08:03:41;278.20;;;51.97;;
47860;SDS011;33620;52.340;5.984;2024-03-06T08:06:08;181.25;;;44.60;;
47860;SDS011;33620;52.340;5.984;2024-03-06T08:08:34;130.63;;;37.58;;
47860;SDS011;33620;52.340;5.984;2024-03-06T08:10:59;100.65;;;33.88;;
47860;SDS011;33620;52.340;5.984;2024-03-06T08:13:25;174.57;;;44.78;;
47860;SDS011;33620;52.340;5.984;2024-03-06T08:15:50;89.10;;;32.33;;
47860;SDS011;33620;52.340;5.984;2024-03-06T08:18:16;97.32;;;34.03;;
47860;SDS011;33620;52.340;5.984;2024-03-06T08:20:41;92.22;;;34.47;;
47860;SDS011;33620;52.340;5.984;2024-03-06T08:23:07;60.97;;;30.70;;
47860;SDS011;33620;52.340;5.984;2024-03-06T08:25:35;67.43;;;31.20;;
47860;SDS011;33620;52.340;5.984;2024-03-06T08:28:00;99.95;;;35.53;;
47860;SDS011;33620;52.340;5.984;2024-03-06T08:30:28;97.32;;;35.33;;
47860;SDS011;33620;52.340;5.984;2024-03-06T08:32:55;75.13;;;34.70;;
47860;SDS011;33620;52.340;5.984;2024-03-06T08:35:21;60.78;;;31.70;;
47860;SDS011;33620;52.340;5.984;2024-03-06T08:37:48;56.58;;;30.05;;
47860;SDS011;33620;52.340;5.984;2024-03-06T08:40:14;69.82;;;32.35;;
47860;SDS011;33620;52.340;5.984;2024-03-06T08:42:49;49.60;;;29.20;;
47860;SDS011;33620;52.340;5.984;2024-03-06T08:45:15;65.55;;;32.80;;
47860;SDS011;33620;52.340;5.984;2024-03-06T08:47:42;56.65;;;32.35;;
47860;SDS011;33620;52.340;5.984;2024-03-06T08:50:09;52.65;;;30.23;;
47860;SDS011;33620;52.340;5.984;2024-03-06T08:52:35;48.22;;;29.00;;
47860;SDS011;33620;52.340;5.984;2024-03-06T08:55:02;54.28;;;30.65;;
47860;SDS011;33620;52.340;5.984;2024-03-06T08:57:31;56.60;;;31.20;;
47860;SDS011;33620;52.340;5.984;2024-03-06T08:59:57;58.08;;;32.20;;
47860;SDS011;33620;52.340;5.984;2024-03-06T09:02:23;56.92;;;32.47;;
47860;SDS011;33620;52.340;5.984;2024-03-06T09:04:48;58.72;;;31.50;;
47860;SDS011;33620;52.340;5.984;2024-03-06T09:07:14;52.70;;;31.90;;
47860;SDS011;33620;52.340;5.984;2024-03-06T09:09:40;63.65;;;36.50;;
47860;SDS011;33620;52.340;5.984;2024-03-06T09:12:06;65.72;;;38.50;;
47860;SDS011;33620;52.340;5.984;2024-03-06T09:14:35;59.45;;;33.78;;
47860;SDS011;33620;52.340;5.984;2024-03-06T09:17:04;56.25;;;33.95;;
47860;SDS011;33620;52.340;5.984;2024-03-06T09:19:30;64.70;;;37.28;;
47860;SDS011;33620;52.340;5.984;2024-03-06T09:21:56;61.38;;;34.83;;
47860;SDS011;33620;52.340;5.984;2024-03-06T09:24:22;58.60;;;35.08;;
47860;SDS011;33620;52.340;5.984;2024-03-06T09:26:48;63.47;;;36.50;;
47860;SDS011;33620;52.340;5.984;2024-03-06T09:29:14;57.05;;;34.75;;
47860;SDS011;33620;52.340;5.984;2024-03-06T09:31:41;62.55;;;33.72;;
47860;SDS011;33620;52.340;5.984;2024-03-06T09:34:07;63.63;;;36.40;;
47860;SDS011;33620;52.340;5.984;2024-03-06T09:36:32;68.93;;;38.38;;
47860;SDS011;33620;52.340;5.984;2024-03-06T09:38:58;63.10;;;35.10;;
47860;SDS011;33620;52.340;5.984;2024-03-06T09:41:23;62.95;;;36.03;;
47860;SDS011;33620;52.340;5.984;2024-03-06T09:43:49;60.90;;;35.80;;
47860;SDS011;33620;52.340;5.984;2024-03-06T09:46:15;65.38;;;37.03;;
47860;SDS011;33620;52.340;5.984;2024-03-06T09:48:47;67.15;;;38.88;;
47860;SDS011;33620;52.340;5.984;2024-03-06T09:51:14;68.38;;;38.10;;
47860;SDS011;33620;52.340;5.984;2024-03-06T09:53:41;67.32;;;37.97;;
47860;SDS011;33620;52.340;5.984;2024-03-06T09:56:08;71.47;;;39.00;;
47860;SDS011;33620;52.340;5.984;2024-03-06T09:58:35;74.43;;;42.03;;
47860;SDS011;33620;52.340;5.984;2024-03-06T10:01:00;75.07;;;39.55;;
47860;SDS011;33620;52.340;5.984;2024-03-06T10:03:32;70.30;;;38.15;;
47860;SDS011;33620;52.340;5.984;2024-03-06T10:06:01;70.60;;;38.33;;
47860;SDS011;33620;52.340;5.984;2024-03-06T10:08:27;63.75;;;36.30;;
47860;SDS011;33620;52.340;5.984;2024-03-06T10:10:52;69.80;;;37.88;;
47860;SDS011;33620;52.340;5.984;2024-03-06T10:13:22;69.90;;;37.35;;
47860;SDS011;33620;52.340;5.984;2024-03-06T10:16:07;63.47;;;35.58;;
47860;SDS011;33620;52.340;5.984;2024-03-06T10:18:34;65.53;;;37.10;;
47860;SDS011;33620;52.340;5.984;2024-03-06T10:21:00;67.72;;;38.17;;
47860;SDS011;33620;52.340;5.984;2024-03-06T10:23:26;68.80;;;37.53;;
47860;SDS011;33620;52.340;5.984;2024-03-06T10:25:54;64.65;;;34.92;;
47860;SDS011;33620;52.340;5.984;2024-03-06T10:28:20;65.70;;;35.25;;
47860;SDS011;33620;52.340;5.984;2024-03-06T10:30:47;67.50;;;36.75;;
47860;SDS011;33620;52.340;5.984;2024-03-06T10:33:14;65.95;;;36.58;;
47860;SDS011;33620;52.340;5.984;2024-03-06T10:35:41;59.85;;;32.75;;
47860;SDS011;33620;52.340;5.984;2024-03-06T10:38:11;70.10;;;37.83;;
47860;SDS011;33620;52.340;5.984;2024-03-06T10:40:37;59.17;;;32.75;;
47860;SDS011;33620;52.340;5.984;2024-03-06T10:43:06;60.88;;;33.28;;
47860;SDS011;33620;52.340;5.984;2024-03-06T10:46:17;56.63;;;32.03;;
47860;SDS011;33620;52.340;5.984;2024-03-06T10:48:25;62.90;;;35.08;;
47860;SDS011;33620;52.340;5.984;2024-03-06T10:50:53;57.38;;;32.75;;
47860;SDS011;33620;52.340;5.984;2024-03-06T10:53:19;56.80;;;33.38;;
47860;SDS011;33620;52.340;5.984;2024-03-06T10:55:46;59.05;;;31.85;;
47860;SDS011;33620;52.340;5.984;2024-03-06T10:58:12;62.22;;;34.60;;
47860;SDS011;33620;52.340;5.984;2024-03-06T11:00:39;58.55;;;33.30;;
47860;SDS011;33620;52.340;5.984;2024-03-06T11:03:06;56.05;;;31.17;;
47860;SDS011;33620;52.340;5.984;2024-03-06T11:05:37;55.00;;;30.05;;
47860;SDS011;33620;52.340;5.984;2024-03-06T11:08:07;61.25;;;33.88;;
47860;SDS011;33620;52.340;5.984;2024-03-06T11:10:35;57.17;;;32.25;;
47860;SDS011;33620;52.340;5.984;2024-03-06T11:13:01;56.38;;;32.58;;
47860;SDS011;33620;52.340;5.984;2024-03-06T11:15:28;60.95;;;34.30;;
47860;SDS011;33620;52.340;5.984;2024-03-06T11:17:54;56.20;;;31.63;;
47860;SDS011;33620;52.340;5.984;2024-03-06T11:20:20;52.15;;;30.83;;
47860;SDS011;33620;52.340;5.984;2024-03-06T11:28:19;53.08;;;30.92;;
47860;SDS011;33620;52.340;5.984;2024-03-06T11:30:45;50.42;;;29.70;;
47860;SDS011;33620;52.340;5.984;2024-03-06T11:33:23;49.65;;;28.70;;
47860;SDS011;33620;52.340;5.984;2024-03-06T11:38:40;52.35;;;28.98;;
47860;SDS011;33620;52.340;5.984;2024-03-06T11:41:06;52.60;;;29.67;;
47860;SDS011;33620;52.340;5.984;2024-03-06T11:43:41;45.22;;;26.35;;
47860;SDS011;33620;52.340;5.984;2024-03-06T11:46:08;56.50;;;30.38;;
47860;SDS011;33620;52.340;5.984;2024-03-06T11:48:34;51.95;;;29.95;;
47860;SDS011;33620;52.340;5.984;2024-03-06T11:51:00;52.20;;;30.80;;
47860;SDS011;33620;52.340;5.984;2024-03-06T11:53:28;52.08;;;30.20;;
47860;SDS011;33620;52.340;5.984;2024-03-06T11:55:54;50.88;;;30.08;;
47860;SDS011;33620;52.340;5.984;2024-03-06T11:58:21;52.50;;;30.55;;
47860;SDS011;33620;52.340;5.984;2024-03-06T12:00:49;47.28;;;27.67;;
47860;SDS011;33620;52.340;5.984;2024-03-06T12:03:15;48.25;;;27.50;;
47860;SDS011;33620;52.340;5.984;2024-03-06T12:05:42;51.08;;;28.20;;
47860;SDS011;33620;52.340;5.984;2024-03-06T12:08:07;46.72;;;27.08;;
47860;SDS011;33620;52.340;5.984;2024-03-06T12:10:36;47.33;;;27.20;;
47860;SDS011;33620;52.340;5.984;2024-03-06T12:13:03;49.42;;;28.70;;
47860;SDS011;33620;52.340;5.984;2024-03-06T12:15:28;45.67;;;27.13;;
47860;SDS011;33620;52.340;5.984;2024-03-06T12:17:54;42.45;;;24.25;;
47860;SDS011;33620;52.340;5.984;2024-03-06T12:20:19;43.47;;;23.63;;
47860;SDS011;33620;52.340;5.984;2024-03-06T12:22:48;45.38;;;26.80;;
47860;SDS011;33620;52.340;5.984;2024-03-06T12:25:21;42.80;;;23.23;;
47860;SDS011;33620;52.340;5.984;2024-03-06T12:27:48;41.47;;;23.60;;
47860;SDS011;33620;52.340;5.984;2024-03-06T12:30:17;44.13;;;25.38;;
47860;SDS011;33620;52.340;5.984;2024-03-06T12:32:43;39.72;;;22.90;;
47860;SDS011;33620;52.340;5.984;2024-03-06T12:35:10;37.95;;;22.00;;
47860;SDS011;33620;52.340;5.984;2024-03-06T12:37:35;45.10;;;24.35;;
47860;SDS011;33620;52.340;5.984;2024-03-06T12:40:01;40.55;;;23.83;;
47860;SDS011;33620;52.340;5.984;2024-03-06T12:42:30;44.47;;;24.55;;
47860;SDS011;33620;52.340;5.984;2024-03-06T12:44:55;47.80;;;27.25;;
47860;SDS011;33620;52.340;5.984;2024-03-06T12:47:22;44.42;;;27.02;;
47860;SDS011;33620;52.340;5.984;2024-03-06T12:49:47;47.80;;;26.90;;
47860;SDS011;33620;52.340;5.984;2024-03-06T12:52:12;44.30;;;26.13;;
47860;SDS011;33620;52.340;5.984;2024-03-06T12:54:38;44.50;;;25.58;;
47860;SDS011;33620;52.340;5.984;2024-03-06T12:57:03;41.90;;;23.95;;
47860;SDS011;33620;52.340;5.984;2024-03-06T12:59:29;40.78;;;24.70;;
47860;SDS011;33620;52.340;5.984;2024-03-06T13:01:54;41.40;;;23.70;;
47860;SDS011;33620;52.340;5.984;2024-03-06T13:04:19;44.25;;;24.38;;
47860;SDS011;33620;52.340;5.984;2024-03-06T13:06:45;45.25;;;25.40;;
47860;SDS011;33620;52.340;5.984;2024-03-06T13:09:10;42.92;;;23.80;;
47860;SDS011;33620;52.340;5.984;2024-03-06T13:11:36;42.17;;;23.27;;
47860;SDS011;33620;52.340;5.984;2024-03-06T13:14:01;42.95;;;24.42;;
47860;SDS011;33620;52.340;5.984;2024-03-06T13:16:27;39.70;;;22.60;;
47860;SDS011;33620;52.340;5.984;2024-03-06T13:18:52;44.60;;;23.52;;
47860;SDS011;33620;52.340;5.984;2024-03-06T13:21:20;41.15;;;23.05;;
47860;SDS011;33620;52.340;5.984;2024-03-06T13:23:45;42.13;;;24.35;;
47860;SDS011;33620;52.340;5.984;2024-03-06T13:26:10;37.63;;;21.98;;
47860;SDS011;33620;52.340;5.984;2024-03-06T13:28:38;36.50;;;21.48;;
47860;SDS011;33620;52.340;5.984;2024-03-06T13:31:03;39.78;;;22.42;;
47860;SDS011;33620;52.340;5.984;2024-03-06T13:33:31;38.92;;;21.48;;
47860;SDS011;33620;52.340;5.984;2024-03-06T13:35:56;37.40;;;22.50;;
47860;SDS011;33620;52.340;5.984;2024-03-06T13:38:22;38.38;;;21.92;;
47860;SDS011;33620;52.340;5.984;2024-03-06T13:40:47;34.22;;;20.15;;
47860;SDS011;33620;52.340;5.984;2024-03-06T13:43:13;37.28;;;20.27;;
47860;SDS011;33620;52.340;5.984;2024-03-06T13:45:38;39.47;;;22.13;;
47860;SDS011;33620;52.340;5.984;2024-03-06T13:48:14;39.90;;;22.88;;
47860;SDS011;33620;52.340;5.984;2024-03-06T13:50:41;36.05;;;21.25;;
47860;SDS011;33620;52.340;5.984;2024-03-06T13:53:08;40.28;;;22.55;;
47860;SDS011;33620;52.340;5.984;2024-03-06T13:55:33;38.80;;;21.70;;
47860;SDS011;33620;52.340;5.984;2024-03-06T13:57:59;39.65;;;21.40;;
47860;SDS011;33620;52.340;5.984;2024-03-06T14:00:25;37.65;;;21.52;;
47860;SDS011;33620;52.340;5.984;2024-03-06T14:02:50;37.35;;;20.90;;
47860;SDS011;33620;52.340;5.984;2024-03-06T14:05:15;36.88;;;20.85;;
47860;SDS011;33620;52.340;5.984;2024-03-06T14:07:41;39.17;;;21.88;;
47860;SDS011;33620;52.340;5.984;2024-03-06T14:10:07;38.15;;;22.65;;
47860;SDS011;33620;52.340;5.984;2024-03-06T14:12:33;36.15;;;21.08;;
47860;SDS011;33620;52.340;5.984;2024-03-06T14:15:00;39.42;;;22.85;;
47860;SDS011;33620;52.340;5.984;2024-03-06T14:17:25;37.25;;;21.63;;
47860;SDS011;33620;52.340;5.984;2024-03-06T14:19:51;38.13;;;22.10;;
47860;SDS011;33620;52.340;5.984;2024-03-06T14:22:16;40.13;;;22.42;;